»·PEaware :: NKS525 KBFI-KOTH

NKS525 :: KBFI-KOTH

FLIGHT INFORMATION

Flight Status: Arrived
Operator:
Spirit Airlines
More flights by this operator :: More flights under this callsign
Pilot: Ben L. (6391)
Aircraft: AIRBUS A319
(A319)
More flights by this aircraft type
Origin: KBFI Boeing Field/King Co Intl
United States
Destination: KOTH North Bend Mun
United States
More flights between these airports :: More routes between these airports
Route: +NEEDLE1 BTG J136 ONP V182 OTH
File this flight plan on PilotEdge
Remarks:
Altitude:
(Current/Filed)
26,000ft
Speed:
(Current/Filed)
450kts
Departed: 05-May-18 06:46 PM
Arrived: 05-May-18 07:45 PM
Distance/Time
Traveled:
260nm/0:59
Distance/Time
To Go:
Arrived

Flight Plot

Page will automatically refresh every two minutes.

Flight plan parsing failed; only flown route is shown


Map Options




Map Legend


Flown Route
Filed Route
Departure Airport
Arrival Airport
Navaid (VOR, NDB)
Fix

Horizontal Profiles

Position Reports

Time Latitude Longitude Heading Altitude Ground
Speed
05-May-18 18:23 47.536456 -122.304308 103 29ft 0kts
05-May-18 18:24 47.536456 -122.304308 103 29ft 0kts
05-May-18 18:25 47.536456 -122.304308 103 29ft 0kts
05-May-18 18:26 47.536456 -122.304308 103 29ft 0kts
05-May-18 18:27 47.536456 -122.304308 103 29ft 0kts
05-May-18 18:28 47.536456 -122.304308 103 29ft 0kts
05-May-18 18:29 47.536456 -122.304308 103 29ft 0kts
05-May-18 18:30 47.536456 -122.304308 103 29ft 0kts
05-May-18 18:31 47.536456 -122.304308 103 29ft 0kts
05-May-18 18:32 47.536456 -122.304308 103 29ft 0kts
05-May-18 18:33 47.536456 -122.304308 103 29ft 0kts
05-May-18 18:34 47.536456 -122.304308 103 29ft 0kts
05-May-18 18:35 47.536456 -122.304308 103 29ft 0kts
05-May-18 18:36 47.536456 -122.304308 103 29ft 0kts
05-May-18 18:37 47.536577 -122.304461 141 29ft 2kts
05-May-18 18:38 47.536859 -122.304816 139 29ft 0kts
05-May-18 18:39 47.536859 -122.304815 139 29ft 0kts
05-May-18 18:40 47.536859 -122.304815 139 29ft 0kts
05-May-18 18:41 47.536261 -122.304392 163 29ft 8kts
05-May-18 18:42 47.532001 -122.301126 151 29ft 24kts
05-May-18 18:43 47.525995 -122.297503 149 29ft 21kts
05-May-18 18:44 47.520764 -122.293011 150 29ft 14kts
05-May-18 18:45 47.519810 -122.292219 153 29ft 6kts
05-May-18 18:46 47.524872 -122.298089 330 29ft 112kts
05-May-18 18:47 47.561865 -122.329014 327 1929ft 167kts
05-May-18 18:48 47.608440 -122.371033 328 2060ft 202kts
05-May-18 18:49 47.660805 -122.415351 330 3700ft 251kts
05-May-18 18:50 47.686818 -122.500341 240 6958ft 271kts
05-May-18 18:51 47.617363 -122.530793 182 10211ft 285kts
05-May-18 18:52 47.529882 -122.533812 181 11845ft 348kts
05-May-18 18:53 47.432558 -122.537028 181 14688ft 360kts
05-May-18 18:54 47.334364 -122.540312 181 17144ft 369kts
05-May-18 18:55 47.232706 -122.543683 182 19441ft 379kts
05-May-18 18:56 47.128104 -122.547097 182 21489ft 389kts
05-May-18 18:57 47.019694 -122.550565 183 23332ft 399kts
05-May-18 18:58 46.909392 -122.554095 183 24961ft 408kts
05-May-18 18:59 46.806363 -122.557422 183 26067ft 417kts
05-May-18 19:00 46.706326 -122.560687 184 26077ft 416kts
05-May-18 19:01 46.603690 -122.563986 183 26068ft 416kts
05-May-18 19:02 46.541226 -122.565972 183 26064ft 416kts
05-May-18 19:03 46.426756 -122.569596 183 26060ft 416kts
05-May-18 19:04 46.311847 -122.573229 183 26056ft 416kts
05-May-18 19:05 46.196888 -122.576854 183 26044ft 417kts
05-May-18 19:06 46.082660 -122.580458 184 26036ft 417kts
05-May-18 19:07 45.968275 -122.584093 183 26027ft 417kts
05-May-18 19:08 45.859917 -122.587471 183 25983ft 417kts
05-May-18 19:09 45.784819 -122.590584 188 26005ft 416kts
05-May-18 19:10 45.700386 -122.652229 221 26012ft 414kts
05-May-18 19:11 45.618459 -122.757586 220 26014ft 414kts
05-May-18 19:12 45.534675 -122.864751 220 26019ft 413kts
05-May-18 19:13 45.449568 -122.973057 221 26020ft 414kts
05-May-18 19:14 45.364538 -123.080814 221 26020ft 416kts
05-May-18 19:15 45.278810 -123.189007 221 26020ft 416kts
05-May-18 19:16 45.192852 -123.297054 221 26020ft 416kts
05-May-18 19:17 45.106714 -123.404878 221 26021ft 416kts
05-May-18 19:18 45.020386 -123.512551 220 26030ft 416kts
05-May-18 19:19 44.933751 -123.620080 219 26042ft 417kts
05-May-18 19:20 44.858350 -123.713274 219 26029ft 417kts
05-May-18 19:21 44.772042 -123.819477 219 26054ft 416kts
05-May-18 19:22 44.685242 -123.925925 219 26064ft 416kts
05-May-18 19:23 44.598008 -124.030626 212 25917ft 414kts
05-May-18 19:24 44.489722 -124.067997 184 25429ft 407kts
05-May-18 19:25 44.378599 -124.078746 184 24141ft 399kts
05-May-18 19:26 44.270354 -124.088951 184 22176ft 385kts
05-May-18 19:27 44.166632 -124.098674 184 20269ft 373kts
05-May-18 19:28 44.065311 -124.108174 184 18389ft 362kts
05-May-18 19:29 43.967004 -124.117335 184 16557ft 352kts
05-May-18 19:30 43.873950 -124.125952 184 14790ft 344kts
05-May-18 19:31 43.780329 -124.134587 184 13438ft 343kts
05-May-18 19:32 43.685561 -124.143325 184 11293ft 340kts
05-May-18 19:33 43.594052 -124.151695 184 10003ft 311kts
05-May-18 19:34 43.515669 -124.158885 184 9598ft 269kts
05-May-18 19:35 43.442099 -124.165596 185 7367ft 265kts
05-May-18 19:36 43.383827 -124.199596 216 6600ft 213kts
05-May-18 19:37 43.341683 -124.241695 216 5994ft 173kts
05-May-18 19:38 43.302885 -124.280354 217 4622ft 172kts
05-May-18 19:39 43.273551 -124.328984 255 3288ft 169kts
05-May-18 19:39 43.278880 -124.380679 299 2207ft 170kts
05-May-18 19:40 43.317409 -124.414352 352 946ft 172kts
05-May-18 19:41 43.362508 -124.387652 42 1387ft 196kts
05-May-18 19:42 43.387124 -124.327941 61 1288ft 162kts
05-May-18 19:43 43.408425 -124.276173 60 343ft 152kts
05-May-18 19:45 43.421167 -124.242805 159 26ft 17kts
05-May-18 19:46 43.419411 -124.246099 243 26ft 18kts
05-May-18 19:46 43.416950 -124.249506 208 26ft 4kts

Navigation Log

Ident Type
Flight plan parsing failed, navigation log unavailable